To NAV CANADA Home Page Login to a new session Search on AWWS site Feedback and Comments Disclaimer Vers la page française équivalente Tips FAQ What's new on the site To the Forecasts and Observations / NOTAM section To "File a Flight Plan" website Publications and other links Update of the User's profile FIC Telephone Numbers My Weather Data Folder Route Weather Data Regional Weather Data Local Weather Data To the Forecasts and Observations / NOTAM section
Request Generated 04/25/2014 at 02:24:38 UTC . Weather information available at that time is displayed.

METAR/TAF

NATASHQUAN/QC    (show WxCam)

METAR CYNA 250200Z AUTO 06012G19KT 9SM CLR M00/M03 A2989 RMK SLP123=
METAR CYNA 250100Z AUTO 06013KT 9SM CLR 00/M03 A2989 RMK SLP123=
METAR CYNA 250000Z AUTO 07015G21KT 9SM SCT140 BKN160 01/M02 A2990 RMK
MAX WND 08018KT AT 2338Z SLP124=

TAF CYNA 250140Z 2502/2514 07012G22KT P6SM BKN150
FM251100 03012G22KT 3SM -SNRA OVC020
RMK FCST BASED ON AUTO OBS. NXT FCST BY 250800Z=
Your time UTC time
Weather data provided by Environment Canada and NAV CANADA